Time;durP1;ratioP1;P1;durP2;ratioP2;P2;SDS_P1;SDS_P2;PMS_P1;PMS_P2;Temp;Humidity;BMP_temperature;BMP_pressure;BME280_temperature;BME280_humidity;BME280_pressure;Samples;Min_cycle;Max_cycle;Signal;HPM_P1;HPM_P2
2023/11/23 00:00:06;;;;;;;23.33;14.47;;;2.10;99.90;;;;;;4864482;29;20726;-79
2023/11/23 00:02:33;;;;;;;23.00;15.47;;;2.10;99.90;;;;;;4864376;29;20041;-79
2023/11/23 00:04:59;;;;;;;22.57;15.97;;;2.00;99.90;;;;;;4864331;29;21107;-79
2023/11/23 00:07:24;;;;;;;23.17;15.73;;;2.00;99.90;;;;;;4863814;29;20032;-79
2023/11/23 00:09:50;;;;;;;25.63;17.00;;;2.00;99.90;;;;;;4864518;29;20068;-79
2023/11/23 00:12:15;;;;;;;27.30;17.77;;;2.00;99.90;;;;;;4866691;29;20041;-79
2023/11/23 00:14:41;;;;;;;24.30;15.27;;;2.00;99.90;;;;;;4865119;29;20057;-79
2023/11/23 00:17:08;;;;;;;22.13;15.43;;;2.00;99.90;;;;;;4862882;29;21076;-79
2023/11/23 00:19:34;;;;;;;22.83;15.77;;;2.00;99.90;;;;;;4864115;29;20477;-79
2023/11/23 00:21:59;;;;;;;23.40;16.00;;;2.00;99.90;;;;;;4868963;29;20047;-79
2023/11/23 00:24:25;;;;;;;23.33;15.57;;;2.00;99.90;;;;;;4869351;29;20063;-79
2023/11/23 00:26:51;;;;;;;21.77;15.00;;;2.00;99.90;;;;;;4876038;29;20126;-78
2023/11/23 00:29:16;;;;;;;23.97;15.57;;;2.00;99.90;;;;;;4881303;29;20033;-78
2023/11/23 00:31:42;;;;;;;21.47;15.63;;;2.00;99.90;;;;;;4876694;29;20469;-78
2023/11/23 00:34:08;;;;;;;21.50;14.90;;;2.00;99.90;;;;;;4868146;29;20052;-79
2023/11/23 00:36:35;;;;;;;22.93;15.43;;;2.00;99.90;;;;;;4868470;29;20029;-79
2023/11/23 00:39:00;;;;;;;25.33;15.17;;;2.00;99.90;;;;;;4868252;29;20033;-79
2023/11/23 00:41:26;;;;;;;25.67;15.93;;;2.00;99.90;;;;;;4867367;29;20092;-79
2023/11/23 00:43:52;;;;;;;24.17;15.47;;;2.00;99.90;;;;;;4867777;29;20080;-78
2023/11/23 00:46:17;;;;;;;26.90;16.37;;;2.00;99.90;;;;;;4867443;29;20032;-79
2023/11/23 00:48:43;;;;;;;24.33;15.17;;;2.00;99.90;;;;;;4866695;29;20096;-79
2023/11/23 00:51:08;;;;;;;23.83;15.37;;;2.00;99.90;;;;;;4867193;29;20096;-79
2023/11/23 00:53:34;;;;;;;24.37;16.77;;;2.00;99.90;;;;;;4867545;29;20044;-79
2023/11/23 00:56:01;;;;;;;24.67;16.83;;;2.00;99.90;;;;;;4866959;29;20505;-79
2023/11/23 00:58:26;;;;;;;24.53;16.47;;;1.90;99.90;;;;;;4867346;29;20548;-79
2023/11/23 01:00:52;;;;;;;26.53;17.80;;;2.00;99.90;;;;;;4867576;29;20043;-79
2023/11/23 01:03:18;;;;;;;27.97;17.83;;;2.00;99.90;;;;;;4867837;29;20033;-79
2023/11/23 01:05:43;;;;;;;26.43;17.67;;;1.90;99.90;;;;;;4867427;29;20115;-79
2023/11/23 01:08:09;;;;;;;27.63;17.80;;;1.90;99.90;;;;;;4867073;29;20108;-79
2023/11/23 01:10:34;;;;;;;25.50;17.00;;;1.90;99.90;;;;;;4868506;29;20092;-79
2023/11/23 01:13:00;;;;;;;27.17;17.50;;;1.90;99.90;;;;;;4867603;29;21168;-79
2023/11/23 01:15:26;;;;;;;25.43;16.30;;;1.90;99.90;;;;;;4866254;29;20024;-79
2023/11/23 01:17:51;;;;;;;24.03;16.33;;;1.90;99.90;;;;;;4867826;29;20029;-80
2023/11/23 01:20:19;;;;;;;27.30;17.80;;;1.90;99.90;;;;;;4867314;29;20037;-79
2023/11/23 01:22:45;;;;;;;24.10;16.40;;;1.90;99.90;;;;;;4867188;29;20084;-79
2023/11/23 01:25:10;;;;;;;24.53;17.13;;;1.80;99.90;;;;;;4867378;29;20029;-79
2023/11/23 01:27:36;;;;;;;25.53;16.60;;;1.90;99.90;;;;;;4866838;29;20058;-79
2023/11/23 01:30:02;;;;;;;22.67;15.27;;;1.90;99.90;;;;;;4867015;29;20037;-79
2023/11/23 01:32:28;;;;;;;24.93;16.70;;;1.90;99.90;;;;;;4866956;29;20044;-79
2023/11/23 01:34:53;;;;;;;24.53;16.43;;;1.90;99.90;;;;;;4865623;29;20084;-79
2023/11/23 01:37:19;;;;;;;22.70;15.33;;;1.90;99.90;;;;;;4867900;29;20085;-80
2023/11/23 01:39:44;;;;;;;24.57;16.37;;;1.90;99.90;;;;;;4866807;29;21390;-79
2023/11/23 01:42:10;;;;;;;21.80;15.20;;;1.90;99.90;;;;;;4867558;29;20758;-79
2023/11/23 01:44:35;;;;;;;21.73;14.87;;;1.90;99.90;;;;;;4866876;29;20029;-79
2023/11/23 01:47:04;;;;;;;22.77;15.67;;;1.90;99.90;;;;;;4866545;29;20457;-79
2023/11/23 01:49:31;;;;;;;23.50;15.47;;;1.90;99.90;;;;;;4867561;29;20416;-79
2023/11/23 01:51:57;;;;;;;22.83;15.60;;;1.90;99.90;;;;;;4869132;29;20045;-79
2023/11/23 01:54:23;;;;;;;26.07;16.30;;;1.90;99.90;;;;;;4866768;29;20048;-79
2023/11/23 01:56:52;;;;;;;21.60;15.47;;;1.90;99.90;;;;;;4867096;29;20044;-79
2023/11/23 01:59:17;;;;;;;24.80;15.77;;;1.90;99.90;;;;;;4867448;29;20043;-78
2023/11/23 02:01:43;;;;;;;21.63;15.27;;;1.90;99.90;;;;;;4868313;29;20033;-79
2023/11/23 02:04:10;;;;;;;23.70;15.60;;;2.00;99.90;;;;;;4867862;29;20120;-79
2023/11/23 02:06:35;;;;;;;23.77;16.17;;;2.00;99.90;;;;;;4868649;29;20104;-79
2023/11/23 02:09:01;;;;;;;22.17;16.10;;;2.00;99.90;;;;;;4869241;29;20116;-78
2023/11/23 02:11:27;;;;;;;22.50;16.13;;;2.00;99.90;;;;;;4868342;29;20036;-79
2023/11/23 02:13:54;;;;;;;24.80;17.17;;;2.00;99.90;;;;;;4868094;29;20193;-79
2023/11/23 02:16:19;;;;;;;24.37;17.27;;;2.00;99.90;;;;;;4866405;29;21359;-79
2023/11/23 02:18:45;;;;;;;24.90;17.17;;;2.00;99.90;;;;;;4866864;29;20041;-79
2023/11/23 02:21:10;;;;;;;27.53;17.50;;;2.00;99.90;;;;;;4866010;29;20044;-79
2023/11/23 02:23:36;;;;;;;25.17;17.47;;;2.00;99.90;;;;;;4867041;29;20045;-79
2023/11/23 02:26:02;;;;;;;25.87;17.87;;;2.00;99.90;;;;;;4868752;29;20052;-79
2023/11/23 02:28:29;;;;;;;26.80;17.97;;;2.00;99.90;;;;;;4869518;29;20910;-79
2023/11/23 02:30:54;;;;;;;26.03;17.13;;;2.00;99.90;;;;;;4870023;29;20029;-79
2023/11/23 02:33:20;;;;;;;24.30;17.20;;;2.00;99.90;;;;;;4867707;29;20737;-80
2023/11/23 02:35:45;;;;;;;25.07;17.80;;;2.00;99.90;;;;;;4866080;29;20029;-79
2023/11/23 02:38:11;;;;;;;24.23;17.07;;;2.10;99.90;;;;;;4867717;29;20037;-79
2023/11/23 02:40:36;;;;;;;24.53;16.83;;;2.10;99.90;;;;;;4867582;29;20025;-79
2023/11/23 02:43:05;;;;;;;23.90;16.03;;;2.10;99.90;;;;;;4865447;29;20037;-79
2023/11/23 02:45:31;;;;;;;24.47;16.70;;;2.10;99.90;;;;;;4866284;29;20746;-79
2023/11/23 02:47:57;;;;;;;24.63;16.73;;;2.10;99.90;;;;;;4866420;29;20069;-79
2023/11/23 02:50:22;;;;;;;25.70;17.43;;;2.10;99.90;;;;;;4864673;29;20123;-79
2023/11/23 02:52:48;;;;;;;27.63;18.50;;;2.10;99.90;;;;;;4866410;29;20025;-79
2023/11/23 02:55:13;;;;;;;26.37;17.80;;;2.10;99.90;;;;;;4865716;29;20083;-79
2023/11/23 02:57:39;;;;;;;27.07;19.40;;;2.00;99.90;;;;;;4865533;29;20762;-79
2023/11/23 03:00:07;;;;;;;27.20;17.50;;;2.00;99.90;;;;;;4866237;29;20088;-79
2023/11/23 03:02:32;;;;;;;30.83;19.67;;;2.00;99.90;;;;;;4865450;29;20041;-79
2023/11/23 03:04:58;;;;;;;32.53;20.13;;;2.00;99.90;;;;;;4866336;29;20129;-79
2023/11/23 03:07:23;;;;;;;32.07;18.43;;;2.00;99.90;;;;;;4865620;29;20045;-79
2023/11/23 03:09:49;;;;;;;27.40;17.70;;;2.00;99.90;;;;;;4865683;29;20034;-79
2023/11/23 03:12:15;;;;;;;28.97;19.20;;;2.00;99.90;;;;;;4866261;29;20510;-79
2023/11/23 03:14:40;;;;;;;31.10;19.43;;;2.00;99.90;;;;;;4865281;29;20497;-80
2023/11/23 03:17:06;;;;;;;27.17;18.00;;;2.00;99.90;;;;;;4866038;29;20037;-79
2023/11/23 03:19:31;;;;;;;28.87;18.67;;;2.00;99.90;;;;;;4865975;29;20029;-79
2023/11/23 03:21:57;;;;;;;27.43;18.40;;;2.00;99.90;;;;;;4866360;29;21029;-79
2023/11/23 03:24:23;;;;;;;28.17;18.53;;;2.00;99.90;;;;;;4874709;29;20489;-79
2023/11/23 03:26:48;;;;;;;24.60;16.90;;;2.00;99.90;;;;;;4879047;29;20057;-79
2023/11/23 03:29:14;;;;;;;24.70;17.07;;;1.90;99.90;;;;;;4872330;29;20129;-79
2023/11/23 03:31:39;;;;;;;24.00;17.13;;;1.90;99.90;;;;;;4863912;29;20925;-79
2023/11/23 03:34:05;;;;;;;27.13;17.87;;;1.90;99.90;;;;;;4866293;29;20036;-79
2023/11/23 03:36:31;;;;;;;25.03;16.23;;;1.90;99.90;;;;;;4864977;29;20041;-79
2023/11/23 03:38:57;;;;;;;24.93;16.03;;;1.90;99.90;;;;;;4865983;29;20029;-79
2023/11/23 03:41:23;;;;;;;24.03;16.33;;;1.90;99.90;;;;;;4866205;29;20037;-79
2023/11/23 03:43:50;;;;;;;24.50;16.57;;;1.90;99.90;;;;;;4865710;29;20033;-79
2023/11/23 03:46:15;;;;;;;23.93;16.27;;;1.90;99.90;;;;;;4864859;29;20139;-79
2023/11/23 03:48:41;;;;;;;25.43;17.00;;;1.80;99.90;;;;;;4865874;29;20108;-79
2023/11/23 03:51:10;;;;;;;25.73;16.60;;;1.90;99.90;;;;;;4868339;29;20634;-79
2023/11/23 03:53:36;;;;;;;25.43;16.33;;;1.90;99.90;;;;;;4868248;29;20025;-79
2023/11/23 03:56:01;;;;;;;24.60;16.93;;;1.90;99.90;;;;;;4868382;29;20131;-80
2023/11/23 03:58:27;;;;;;;25.50;16.93;;;1.80;99.90;;;;;;4871870;29;20032;-79
2023/11/23 04:00:52;;;;;;;25.30;16.87;;;1.90;99.90;;;;;;4871194;29;20060;-79
2023/11/23 04:03:18;;;;;;;25.03;17.10;;;1.80;99.90;;;;;;4872021;29;20027;-79
2023/11/23 04:05:43;;;;;;;30.47;18.27;;;1.80;99.90;;;;;;4871062;29;20101;-79
2023/11/23 04:08:09;;;;;;;24.33;16.73;;;1.80;99.90;;;;;;4871606;29;20081;-79
2023/11/23 04:10:35;;;;;;;25.93;16.83;;;1.80;99.90;;;;;;4873168;29;20024;-79
2023/11/23 04:13:01;;;;;;;25.87;17.17;;;1.80;99.90;;;;;;4872531;29;20025;-79
2023/11/23 04:15:27;;;;;;;24.70;16.00;;;1.80;99.90;;;;;;4870109;29;20040;-79
2023/11/23 04:17:53;;;;;;;24.90;16.37;;;1.80;99.90;;;;;;4870791;29;20602;-79
2023/11/23 04:20:18;;;;;;;26.83;17.13;;;1.80;99.90;;;;;;4870874;29;20103;-79
2023/11/23 04:22:44;;;;;;;27.37;17.40;;;1.80;99.90;;;;;;4871874;29;20033;-79
2023/11/23 04:25:10;;;;;;;26.57;17.63;;;1.80;99.90;;;;;;4869868;29;20049;-79
2023/11/23 04:27:35;;;;;;;27.57;16.10;;;1.80;99.90;;;;;;4871422;29;20037;-79
2023/11/23 04:30:01;;;;;;;23.50;16.10;;;1.70;99.90;;;;;;4871230;29;20032;-79
2023/11/23 04:32:26;;;;;;;25.53;16.87;;;1.80;99.90;;;;;;4871177;29;20061;-79
2023/11/23 04:34:52;;;;;;;24.03;15.57;;;1.70;99.90;;;;;;4870043;29;20051;-79
2023/11/23 04:37:23;;;;;;;22.87;15.40;;;1.80;99.90;;;;;;4870990;29;20155;-79
2023/11/23 04:39:50;;;;;;;24.40;15.03;;;1.80;99.90;;;;;;4870662;29;20853;-79
2023/11/23 04:42:16;;;;;;;19.37;12.87;;;1.80;99.90;;;;;;4871049;29;20072;-79
2023/11/23 04:44:42;;;;;;;18.03;12.50;;;1.80;99.90;;;;;;4869717;29;20125;-79
2023/11/23 04:47:07;;;;;;;20.33;12.90;;;1.80;99.90;;;;;;4869631;29;20025;-79
2023/11/23 04:49:33;;;;;;;17.60;12.10;;;1.80;99.90;;;;;;4870435;29;20040;-79
2023/11/23 04:51:58;;;;;;;19.17;12.53;;;1.90;99.90;;;;;;4870971;29;20033;-79
2023/11/23 04:54:24;;;;;;;20.07;12.83;;;1.90;99.90;;;;;;4870713;29;20061;-79
2023/11/23 04:56:51;;;;;;;17.43;12.13;;;1.90;99.90;;;;;;4870015;29;20024;-79
2023/11/23 04:59:17;;;;;;;18.53;12.57;;;1.90;99.90;;;;;;4869610;29;20060;-79
2023/11/23 05:01:43;;;;;;;19.23;13.10;;;1.90;99.90;;;;;;4870017;29;20071;-79
2023/11/23 05:04:08;;;;;;;20.20;12.97;;;1.90;99.90;;;;;;4870119;29;20104;-79
2023/11/23 05:06:35;;;;;;;17.33;12.13;;;1.90;99.90;;;;;;4868989;29;20165;-79
2023/11/23 05:09:01;;;;;;;17.93;12.27;;;1.90;99.90;;;;;;4870182;29;20035;-79
2023/11/23 05:11:28;;;;;;;19.17;12.90;;;1.90;99.90;;;;;;4868952;29;20041;-80
2023/11/23 05:13:56;;;;;;;18.53;12.67;;;1.90;99.90;;;;;;4870622;29;20091;-79
2023/11/23 05:16:21;;;;;;;17.77;12.60;;;1.90;99.90;;;;;;4870315;29;20064;-79
2023/11/23 05:18:47;;;;;;;18.77;13.03;;;2.00;99.90;;;;;;4871901;29;20508;-80
2023/11/23 05:21:12;;;;;;;19.70;13.83;;;2.00;99.90;;;;;;4870724;29;20028;-79
2023/11/23 05:23:38;;;;;;;21.00;14.00;;;1.90;99.90;;;;;;4870821;29;20045;-79
2023/11/23 05:26:04;;;;;;;22.03;13.33;;;1.90;99.90;;;;;;4869706;29;20053;-80
2023/11/23 05:28:30;;;;;;;20.40;14.13;;;1.90;99.90;;;;;;4870362;29;20069;-79
2023/11/23 05:30:56;;;;;;;21.50;14.00;;;1.90;99.90;;;;;;4870975;29;20037;-80
2023/11/23 05:33:21;;;;;;;20.10;13.77;;;1.90;99.90;;;;;;4871830;29;20036;-79
2023/11/23 05:35:47;;;;;;;19.97;13.87;;;2.00;99.90;;;;;;4873631;29;20088;-79
2023/11/23 05:38:12;;;;;;;22.17;13.87;;;2.00;99.90;;;;;;4872501;29;20109;-79
2023/11/23 05:40:38;;;;;;;20.60;13.57;;;1.90;99.90;;;;;;4871076;29;20039;-80
2023/11/23 05:43:03;;;;;;;20.93;14.07;;;2.00;99.90;;;;;;4868549;29;20040;-79
2023/11/23 05:45:30;;;;;;;20.10;13.63;;;2.00;99.90;;;;;;4868268;29;20040;-79
2023/11/23 05:47:56;;;;;;;19.67;13.43;;;2.10;99.90;;;;;;4871051;29;20029;-80
2023/11/23 05:50:21;;;;;;;21.63;14.10;;;2.00;99.90;;;;;;4864452;29;20412;-80
2023/11/23 05:52:47;;;;;;;19.37;13.50;;;2.00;99.90;;;;;;4868336;29;20481;-79
2023/11/23 05:55:15;;;;;;;18.37;12.93;;;2.00;99.90;;;;;;4868433;29;20072;-80
2023/11/23 05:57:40;;;;;;;19.70;13.07;;;2.00;99.90;;;;;;4869039;29;20041;-79
2023/11/23 06:00:08;;;;;;;20.90;14.77;;;2.00;99.90;;;;;;4866413;29;20043;-79
2023/11/23 06:02:33;;;;;;;19.43;13.63;;;2.10;99.90;;;;;;4868913;29;20705;-80
2023/11/23 06:04:59;;;;;;;18.67;12.97;;;2.00;99.90;;;;;;4868162;29;20040;-79
2023/11/23 06:07:24;;;;;;;20.23;13.80;;;2.10;99.90;;;;;;4867699;29;20112;-80
2023/11/23 06:09:51;;;;;;;20.50;13.43;;;2.00;99.90;;;;;;4868964;29;20048;-80
2023/11/23 06:12:16;;;;;;;20.77;13.60;;;2.00;99.90;;;;;;4866794;29;20083;-80
2023/11/23 06:14:42;;;;;;;20.90;13.93;;;2.00;99.90;;;;;;4869765;29;20778;-80
2023/11/23 06:17:10;;;;;;;19.60;13.00;;;2.00;99.90;;;;;;4870146;29;20039;-80
2023/11/23 06:19:36;;;;;;;21.03;14.00;;;2.00;99.90;;;;;;4887106;29;20024;-79
2023/11/23 06:22:02;;;;;;;19.93;13.63;;;2.00;99.90;;;;;;4889339;29;20021;-79
2023/11/23 06:24:27;;;;;;;21.50;13.63;;;2.10;99.90;;;;;;4885512;29;20044;-79
2023/11/23 06:26:53;;;;;;;20.93;13.73;;;2.10;99.90;;;;;;4886286;29;20029;-80
2023/11/23 06:29:18;;;;;;;18.60;12.93;;;2.10;99.90;;;;;;4890155;29;20032;-80
2023/11/23 06:31:44;;;;;;;21.67;13.97;;;2.10;99.90;;;;;;4877090;29;20021;-80
2023/11/23 06:34:10;;;;;;;22.43;14.03;;;2.10;99.90;;;;;;4871930;29;20029;-80
2023/11/23 06:36:38;;;;;;;19.67;12.83;;;2.10;99.90;;;;;;4870526;29;20032;-80
2023/11/23 06:39:04;;;;;;;21.63;14.30;;;2.10;99.90;;;;;;4869584;29;20529;-80
2023/11/23 06:41:29;;;;;;;21.70;14.33;;;2.10;99.90;;;;;;4867072;29;20025;-80
2023/11/23 06:43:55;;;;;;;23.30;15.33;;;2.10;99.90;;;;;;4868423;29;20608;-80
2023/11/23 06:46:21;;;;;;;22.93;14.30;;;2.10;99.90;;;;;;4870163;29;20078;-80
2023/11/23 06:48:46;;;;;;;21.53;14.30;;;2.10;99.90;;;;;;4869792;29;20044;-80
2023/11/23 06:51:16;;;;;;;25.87;15.73;;;2.10;99.90;;;;;;4872855;29;20068;-84
2023/11/23 06:53:46;;;;;;;20.60;14.03;;;2.20;99.90;;;;;;4870448;29;20025;-84
2023/11/23 06:56:12;;;;;;;21.97;14.17;;;2.20;99.90;;;;;;4870098;29;20036;-84
2023/11/23 06:58:48;;;;;;;21.90;13.93;;;2.20;99.90;;;;;;4869760;29;20029;-85
2023/11/23 07:01:14;;;;;;;;;;;2.20;99.90;;;;;;4870424;29;20041;-84
2023/11/23 07:03:41;;;;;;;22.73;14.27;;;2.30;99.90;;;;;;4869489;29;19931;-84
2023/11/23 07:06:08;;;;;;;22.23;13.57;;;2.30;99.90;;;;;;4868131;29;20508;-84
2023/11/23 07:08:34;;;;;;;20.97;14.10;;;2.30;99.90;;;;;;4867069;29;20037;-84
2023/11/23 07:11:06;;;;;;;21.93;13.97;;;2.30;99.90;;;;;;4869179;29;20116;-84
2023/11/23 07:13:35;;;;;;;23.27;13.73;;;2.40;99.90;;;;;;4867834;29;20040;-84
2023/11/23 07:16:02;;;;;;;21.53;14.40;;;2.40;99.90;;;;;;4867809;29;20650;-86
2023/11/23 07:18:29;;;;;;;22.30;13.47;;;2.40;99.90;;;;;;4871851;29;20101;-83
2023/11/23 07:20:57;;;;;;;20.57;13.33;;;2.40;99.90;;;;;;4872412;29;20037;-83
2023/11/23 07:23:23;;;;;;;24.40;16.43;;;2.40;99.90;;;;;;4873711;29;21153;-85
2023/11/23 07:25:49;;;;;;;22.90;14.93;;;2.50;99.90;;;;;;4872644;29;20064;-83
2023/11/23 07:28:21;;;;;;;23.00;14.97;;;2.40;99.90;;;;;;4871192;29;20079;-83
2023/11/23 07:30:48;;;;;;;22.07;14.00;;;2.40;99.90;;;;;;4872953;29;20146;-84
2023/11/23 07:33:17;;;;;;;22.70;15.23;;;2.50;99.90;;;;;;4872353;29;20037;-84
2023/11/23 07:35:46;;;;;;;25.33;15.07;;;2.50;99.90;;;;;;4869266;29;20111;-84
2023/11/23 07:38:13;;;;;;;21.10;14.20;;;2.50;99.90;;;;;;4871220;29;20045;-84
2023/11/23 07:40:39;;;;;;;22.03;14.53;;;2.60;99.90;;;;;;4871165;29;20922;-84
2023/11/23 07:43:04;;;;;;;21.43;14.23;;;2.60;99.90;;;;;;4870324;29;21169;-84
2023/11/23 07:45:30;;;;;;;20.27;13.57;;;2.60;99.90;;;;;;4869848;29;20033;-84
2023/11/23 07:47:56;;;;;;;22.40;14.00;;;2.60;99.90;;;;;;4869742;29;20040;-83
2023/11/23 07:50:22;;;;;;;21.50;13.80;;;2.60;99.90;;;;;;4869350;29;20033;-84
2023/11/23 07:52:47;;;;;;;22.43;14.83;;;2.70;99.90;;;;;;4867318;29;20738;-84
2023/11/23 07:55:15;;;;;;;20.03;13.97;;;2.80;99.90;;;;;;4867814;29;20025;-84
2023/11/23 07:57:51;;;;;;;20.07;12.13;;;2.80;99.90;;;;;;4870256;29;20033;-83
2023/11/23 08:00:19;;;;;;;20.83;13.93;;;2.90;99.90;;;;;;4869382;29;20040;-84
2023/11/23 08:02:45;;;;;;;18.70;12.67;;;2.90;99.90;;;;;;4866188;29;20045;-84
2023/11/23 08:05:11;;;;;;;20.73;13.27;;;2.90;99.90;;;;;;4867563;29;20040;-84
2023/11/23 08:07:37;;;;;;;19.03;13.40;;;3.00;99.90;;;;;;4870832;29;20033;-84
2023/11/23 08:10:09;;;;;;;17.93;12.53;;;3.00;99.90;;;;;;4872054;29;20040;-84
2023/11/23 08:12:35;;;;;;;19.30;12.70;;;3.10;99.90;;;;;;4872121;29;20048;-84
2023/11/23 08:15:02;;;;;;;18.23;12.97;;;3.10;99.90;;;;;;4870859;29;20144;-85
2023/11/23 08:17:27;;;;;;;19.63;13.47;;;3.20;99.90;;;;;;4871728;29;20033;-84
2023/11/23 08:19:53;;;;;;;16.33;11.03;;;3.20;99.90;;;;;;4872011;29;20048;-84
2023/11/23 08:22:20;;;;;;;16.77;11.40;;;3.30;99.90;;;;;;4869986;29;20043;-84
2023/11/23 08:24:46;;;;;;;17.50;11.87;;;3.30;99.90;;;;;;4870549;29;20041;-84
2023/11/23 08:27:12;;;;;;;16.27;10.97;;;3.30;99.90;;;;;;4872238;29;20032;-84
2023/11/23 08:29:38;;;;;;;16.60;10.50;;;3.30;99.90;;;;;;4869360;29;20408;-84
2023/11/23 08:32:04;;;;;;;15.27;10.20;;;3.40;99.90;;;;;;4868660;29;20048;-84
2023/11/23 08:34:30;;;;;;;16.23;11.07;;;3.30;99.90;;;;;;4869804;29;20509;-84
2023/11/23 08:36:56;;;;;;;16.43;10.90;;;3.30;99.90;;;;;;4872198;29;20048;-84
2023/11/23 08:39:21;;;;;;;18.33;11.77;;;3.30;99.90;;;;;;4867827;29;20064;-84
2023/11/23 08:41:47;;;;;;;14.67;9.87;;;3.40;99.90;;;;;;4868254;29;20383;-84
2023/11/23 08:44:13;;;;;;;18.27;11.90;;;3.40;99.90;;;;;;4872571;29;20088;-84
2023/11/23 08:46:43;;;;;;;14.23;10.07;;;3.40;99.90;;;;;;4873045;29;20020;-84
2023/11/23 08:49:10;;;;;;;14.57;10.33;;;3.50;99.90;;;;;;4871058;29;20041;-84
2023/11/23 08:51:39;;;;;;;17.90;11.10;;;3.40;99.90;;;;;;4860933;29;20089;-85
2023/11/23 08:54:05;;;;;;;16.23;10.97;;;3.50;99.90;;;;;;4863911;29;20037;-84
2023/11/23 08:56:31;;;;;;;15.00;10.70;;;3.50;99.90;;;;;;4864638;29;20029;-84
2023/11/23 08:58:57;;;;;;;15.97;10.83;;;3.60;99.90;;;;;;4867770;29;20033;-83
2023/11/23 09:01:23;;;;;;;15.57;10.47;;;3.70;99.90;;;;;;4865608;29;20204;-85
2023/11/23 09:03:48;;;;;;;15.03;10.00;;;3.70;99.90;;;;;;4861053;29;20033;-84
2023/11/23 09:06:14;;;;;;;14.83;10.27;;;3.70;99.90;;;;;;4860386;29;20402;-83
2023/11/23 09:08:40;;;;;;;14.30;9.87;;;3.80;99.90;;;;;;4862490;29;20656;-84
2023/11/23 09:11:06;;;;;;;13.17;9.40;;;3.80;99.90;;;;;;4861363;29;20029;-84
2023/11/23 09:13:32;;;;;;;13.17;9.47;;;3.90;99.90;;;;;;4859826;29;20037;-84
2023/11/23 09:15:58;;;;;;;14.60;10.20;;;3.90;99.90;;;;;;4861417;29;20120;-83
2023/11/23 09:18:24;;;;;;;15.37;11.00;;;4.00;99.90;;;;;;4879462;29;20022;-84
2023/11/23 09:20:50;;;;;;;13.50;10.17;;;4.00;99.90;;;;;;4882093;29;20037;-84
2023/11/23 09:23:17;;;;;;;16.03;11.17;;;4.00;99.90;;;;;;4866257;29;20131;-84
2023/11/23 09:25:46;;;;;;;15.57;10.53;;;3.90;99.90;;;;;;4858557;29;20029;-84
2023/11/23 09:28:12;;;;;;;14.43;10.17;;;3.90;99.90;;;;;;4855365;29;20029;-84
2023/11/23 09:30:38;;;;;;;15.30;10.33;;;3.90;99.90;;;;;;4858205;29;21358;-85
2023/11/23 09:33:09;;;;;;;15.90;10.33;;;3.90;99.90;;;;;;4859605;29;20033;-85
2023/11/23 09:35:43;;;;;;;16.30;10.97;;;3.90;99.90;;;;;;4858204;29;20033;-85
2023/11/23 09:38:09;;;;;;;14.98;10.00;;;3.90;99.90;;;;;;4857411;29;20049;-85
2023/11/23 09:40:35;;;;;;;15.53;9.73;;;3.90;99.90;;;;;;4858724;29;20051;-85
2023/11/23 09:43:01;;;;;;;15.07;10.60;;;3.90;99.90;;;;;;4858432;29;20029;-84
2023/11/23 09:45:28;;;;;;;15.43;10.80;;;4.00;99.90;;;;;;4857580;29;20032;-84
2023/11/23 09:47:56;;;;;;;15.10;10.00;;;4.10;99.90;;;;;;4856282;29;20033;-84
2023/11/23 09:50:22;;;;;;;19.30;11.00;;;4.20;99.90;;;;;;4854896;29;20594;-81
2023/11/23 09:52:48;;;;;;;15.03;10.37;;;4.30;99.90;;;;;;4854783;29;20037;-82
2023/11/23 09:55:17;;;;;;;14.70;10.53;;;4.30;99.90;;;;;;4855731;29;20041;-82
2023/11/23 09:57:50;;;;;;;17.43;10.97;;;4.20;99.90;;;;;;4858024;29;20682;-88
2023/11/23 10:00:16;;;;;;;16.70;10.70;;;4.30;99.90;;;;;;4860662;29;20029;-84
2023/11/23 10:02:43;;;;;;;15.50;10.73;;;4.30;99.90;;;;;;4858082;29;20029;-85
2023/11/23 10:05:13;;;;;;;13.50;9.87;;;4.50;99.90;;;;;;4859284;29;20056;-86
2023/11/23 10:07:40;;;;;;;15.90;10.93;;;4.70;99.90;;;;;;4854212;29;20156;-84
2023/11/23 10:10:06;;;;;;;13.60;10.80;;;4.90;99.90;;;;;;4854158;29;20039;-74
2023/11/23 10:12:36;;;;;;;14.83;10.73;;;5.20;99.90;;;;;;4855297;29;20041;-83
2023/11/23 10:15:02;;;;;;;15.17;10.73;;;5.30;99.90;;;;;;4854900;29;20148;-83
2023/11/23 10:17:29;;;;;;;14.83;10.53;;;5.40;99.90;;;;;;4853076;29;20029;-83
2023/11/23 10:20:09;;;;;;;16.40;11.30;;;5.30;99.90;;;;;;4853968;29;20842;-83
2023/11/23 10:22:34;;;;;;;15.60;10.47;;;5.20;99.90;;;;;;4856746;29;20080;-83
2023/11/23 10:25:00;;;;;;;16.03;11.07;;;5.20;99.90;;;;;;4854813;29;20041;-82
2023/11/23 10:27:26;;;;;;;14.67;10.57;;;5.10;99.90;;;;;;4853264;29;20037;-83
2023/11/23 10:29:52;;;;;;;13.30;9.77;;;5.10;99.90;;;;;;4855850;29;20033;-83
2023/11/23 10:32:19;;;;;;;13.70;9.90;;;5.10;99.90;;;;;;4858724;29;20036;-83
2023/11/23 10:34:45;;;;;;;14.50;10.37;;;5.10;99.90;;;;;;4856178;29;20141;-82
2023/11/23 10:37:14;;;;;;;18.20;10.27;;;5.10;99.90;;;;;;4856430;29;21338;-82
2023/11/23 10:39:40;;;;;;;13.90;9.77;;;5.00;99.90;;;;;;4855720;29;20753;-82
2023/11/23 10:42:06;;;;;;;11.90;8.83;;;5.00;99.90;;;;;;4856397;29;20039;-82
2023/11/23 10:44:33;;;;;;;11.10;8.43;;;5.00;99.90;;;;;;4857418;29;20096;-81
2023/11/23 10:47:03;;;;;;;11.20;8.03;;;5.00;99.90;;;;;;4858735;29;20033;-82
2023/11/23 10:49:37;;;;;;;11.33;8.60;;;5.00;99.90;;;;;;4855978;29;20064;-82
2023/11/23 10:52:03;;;;;;;12.53;9.10;;;5.00;99.90;;;;;;4861007;29;20104;-82
2023/11/23 10:54:29;;;;;;;13.10;8.70;;;5.20;99.90;;;;;;4869390;29;20551;-82
2023/11/23 10:56:57;;;;;;;12.03;8.83;;;5.20;99.90;;;;;;4868030;29;20033;-82
2023/11/23 10:59:25;;;;;;;11.73;8.60;;;5.20;99.90;;;;;;4868641;29;20033;-82
2023/11/23 11:01:54;;;;;;;10.83;7.20;;;5.20;99.90;;;;;;4868334;29;20096;-81
2023/11/23 11:04:20;;;;;;;10.30;7.90;;;5.30;99.90;;;;;;4869953;29;20029;-81
2023/11/23 11:06:49;;;;;;;12.13;7.33;;;5.20;99.90;;;;;;4867682;29;20497;-82
2023/11/23 11:09:15;;;;;;;11.83;8.70;;;5.30;99.90;;;;;;4869571;29;20041;-82
2023/11/23 11:11:45;;;;;;;11.43;8.77;;;5.20;99.90;;;;;;4869960;29;20033;-81
2023/11/23 11:14:16;;;;;;;12.57;9.13;;;5.10;99.90;;;;;;4872909;29;20041;-82
2023/11/23 11:16:42;;;;;;;10.63;7.90;;;5.20;99.90;;;;;;4870695;29;20052;-81
2023/11/23 11:19:13;;;;;;;11.83;7.73;;;5.20;99.90;;;;;;4869964;29;20029;-81
2023/11/23 11:21:49;;;;;;;13.17;8.73;;;5.20;99.90;;;;;;4870587;29;20408;-82
2023/11/23 11:24:20;;;;;;;10.70;8.23;;;5.20;99.90;;;;;;4870640;29;20036;-82
2023/11/23 11:26:49;;;;;;;11.20;8.27;;;5.30;99.90;;;;;;4869456;29;20045;-81
2023/11/23 11:29:18;;;;;;;10.63;8.03;;;5.40;99.90;;;;;;4872379;29;20033;-81
2023/11/23 11:31:48;;;;;;;10.20;6.93;;;5.50;99.90;;;;;;4873425;29;20029;-81
2023/11/23 11:34:21;;;;;;;11.13;8.10;;;5.50;99.90;;;;;;4873178;29;20029;-81
2023/11/23 11:36:57;;;;;;;11.20;7.70;;;5.60;99.90;;;;;;4872496;29;20035;-81
2023/11/23 11:39:22;;;;;;;11.53;8.50;;;5.60;99.90;;;;;;4860913;29;20096;-72
2023/11/23 11:41:56;;;;;;;10.27;7.47;;;5.70;99.90;;;;;;4866243;29;20519;-86
2023/11/23 11:44:22;;;;;;;12.33;7.67;;;5.80;99.90;;;;;;4871680;29;20062;-85
2023/11/23 11:46:48;;;;;;;9.33;6.77;;;5.90;99.90;;;;;;4870624;29;20109;-85
2023/11/23 11:49:13;;;;;;;9.03;7.10;;;6.00;99.90;;;;;;4872656;29;20120;-85
2023/11/23 11:51:41;;;;;;;9.70;7.67;;;6.00;99.90;;;;;;4869710;29;20073;-85
2023/11/23 11:54:07;;;;;;;10.53;7.87;;;6.10;99.90;;;;;;4870776;29;20041;-85
2023/11/23 11:56:32;;;;;;;9.20;7.30;;;6.20;99.90;;;;;;4868871;29;20052;-85
2023/11/23 11:58:59;;;;;;;11.60;8.20;;;6.20;99.90;;;;;;4868864;29;20037;-77
2023/11/23 12:01:25;;;;;;;10.23;7.60;;;6.40;99.90;;;;;;4865441;29;20067;-83
2023/11/23 12:03:50;;;;;;;9.83;6.97;;;6.30;99.90;;;;;;4870224;29;20041;-83
2023/11/23 12:06:19;;;;;;;10.47;7.47;;;6.30;99.90;;;;;;4871731;29;20064;-83
2023/11/23 12:08:45;;;;;;;11.77;8.00;;;6.30;99.90;;;;;;4875702;29;20128;-83
2023/11/23 12:11:25;;;;;;;10.80;7.63;;;6.40;99.90;;;;;;4880060;29;20092;-83
2023/11/23 12:13:53;;;;;;;9.90;7.17;;;6.50;99.90;;;;;;4892255;29;20037;-84
2023/11/23 12:16:19;;;;;;;9.37;6.73;;;6.60;99.90;;;;;;4890307;29;20037;-82
2023/11/23 12:18:45;;;;;;;9.83;6.90;;;6.70;99.90;;;;;;4881946;29;20081;-83
2023/11/23 12:21:13;;;;;;;9.77;7.00;;;6.70;99.90;;;;;;4873257;29;20033;-83
2023/11/23 12:23:42;;;;;;;9.40;6.87;;;6.80;99.90;;;;;;4874714;29;20061;-83
2023/11/23 12:26:13;;;;;;;8.87;6.87;;;6.90;99.90;;;;;;4872503;29;20113;-84
2023/11/23 12:28:39;;;;;;;8.50;6.50;;;6.90;99.90;;;;;;4875903;29;20029;-83
2023/11/23 12:31:04;;;;;;;8.57;6.57;;;6.90;99.90;;;;;;4873417;29;20869;-83
2023/11/23 12:33:30;;;;;;;9.43;6.77;;;6.90;99.90;;;;;;4873687;29;20666;-83
2023/11/23 12:35:55;;;;;;;8.17;6.17;;;7.00;99.90;;;;;;4874147;29;21279;-83